Time;durP1;ratioP1;P1;durP2;ratioP2;P2;SDS_P1;SDS_P2;PMS_P1;PMS_P2;Temp;Humidity;BMP_temperature;BMP_pressure;BME280_temperature;BME280_humidity;BME280_pressure;Samples;Min_cycle;Max_cycle;Signal;HPM_P1;HPM_P2
2021/12/19 00:01:52;;;;;;;12.10;3.00;;;7.60;99.90;;;;;;5009348;28;20057;-72
2021/12/19 00:09:29;;;;;;;13.00;3.47;;;7.50;99.90;;;;;;5012640;28;20018;-72
2021/12/19 00:11:56;;;;;;;8.73;2.85;;;7.50;99.90;;;;;;5011502;28;20068;-72
2021/12/19 00:14:23;;;;;;;15.98;3.30;;;7.60;99.90;;;;;;4994354;28;20472;-72
2021/12/19 00:16:50;;;;;;;13.40;3.80;;;7.60;99.90;;;;;;5011296;28;20026;-73
2021/12/19 00:19:16;;;;;;;11.90;3.50;;;7.60;99.90;;;;;;5010462;28;20025;-72
2021/12/19 00:21:44;;;;;;;16.88;4.25;;;7.50;99.90;;;;;;5009815;28;20120;-75
2021/12/19 00:24:10;;;;;;;11.60;3.53;;;7.60;99.90;;;;;;5012384;28;20021;-73
2021/12/19 00:26:36;;;;;;;15.65;4.03;;;7.50;99.90;;;;;;5012040;28;20026;-72
2021/12/19 00:29:03;;;;;;;12.65;3.67;;;7.50;99.90;;;;;;5010464;28;20128;-72
2021/12/19 00:31:30;;;;;;;100.85;43.70;;;7.60;99.90;;;;;;5011315;28;20025;-72
2021/12/19 00:33:56;;;;;;;82.40;37.05;;;7.50;99.90;;;;;;5011441;28;20105;-72
2021/12/19 00:36:22;;;;;;;240.68;106.60;;;7.50;99.90;;;;;;5011971;28;20061;-72
2021/12/19 00:38:48;;;;;;;11.43;4.43;;;7.60;99.90;;;;;;5011324;28;20511;-73
2021/12/19 00:41:14;;;;;;;12.32;3.28;;;7.60;99.90;;;;;;5011428;28;20022;-73
2021/12/19 00:43:53;;;;;;;15.52;3.50;;;7.60;99.90;;;;;;4993398;28;20057;-72
2021/12/19 00:46:21;;;;;;;13.18;3.80;;;7.60;99.90;;;;;;5011519;28;20030;-72
2021/12/19 00:48:49;;;;;;;15.48;4.40;;;7.60;99.90;;;;;;5012402;28;21000;-72
2021/12/19 00:51:19;;;;;;;17.70;3.95;;;7.60;99.90;;;;;;5010950;28;20472;-72
2021/12/19 00:53:46;;;;;;;14.05;4.28;;;7.60;99.90;;;;;;5010247;28;20026;-72
2021/12/19 00:56:12;;;;;;;14.80;4.10;;;7.60;99.90;;;;;;5011872;28;20022;-72
2021/12/19 00:58:37;;;;;;;16.40;4.18;;;7.60;99.90;;;;;;5011273;28;20041;-72
2021/12/19 01:01:06;;;;;;;13.52;4.38;;;7.60;99.90;;;;;;4987179;28;20022;-72
2021/12/19 01:03:33;;;;;;;25.52;5.97;;;7.60;99.90;;;;;;5011023;28;20034;-72
2021/12/19 01:06:02;;;;;;;14.02;4.75;;;7.60;99.90;;;;;;5011833;28;20022;-72
2021/12/19 01:08:28;;;;;;;13.75;4.63;;;7.60;99.90;;;;;;5011893;28;20026;-72
2021/12/19 01:10:54;;;;;;;18.90;4.32;;;7.60;99.90;;;;;;5011903;28;20040;-72
2021/12/19 01:13:20;;;;;;;14.23;4.57;;;7.60;99.90;;;;;;5011430;28;20030;-72
2021/12/19 01:15:47;;;;;;;20.40;5.70;;;7.60;99.90;;;;;;5011795;28;20033;-72
2021/12/19 01:18:13;;;;;;;24.27;4.95;;;7.60;99.90;;;;;;5011469;28;20026;-73
2021/12/19 01:20:41;;;;;;;16.33;4.50;;;7.60;99.90;;;;;;5011755;28;20018;-73
2021/12/19 01:23:07;;;;;;;19.95;5.43;;;7.60;99.90;;;;;;5006757;28;20061;-71
2021/12/19 01:25:34;;;;;;;16.33;4.60;;;7.60;99.90;;;;;;5011349;28;20084;-72
2021/12/19 01:28:00;;;;;;;14.73;4.43;;;7.60;99.90;;;;;;4994285;28;20026;-72
2021/12/19 01:30:26;;;;;;;13.48;4.80;;;7.60;99.90;;;;;;5011595;28;20479;-72
2021/12/19 01:32:52;;;;;;;20.00;5.10;;;7.60;99.90;;;;;;5011326;28;20392;-72
2021/12/19 01:35:19;;;;;;;15.38;5.05;;;7.60;99.90;;;;;;4993449;28;20030;-72
2021/12/19 01:37:46;;;;;;;21.67;4.50;;;7.70;99.90;;;;;;5011589;28;20034;-73
2021/12/19 01:40:15;;;;;;;20.02;4.68;;;7.70;99.90;;;;;;5011547;28;20025;-72
2021/12/19 01:42:43;;;;;;;17.25;5.20;;;7.60;99.90;;;;;;5011509;28;20073;-72
2021/12/19 01:45:14;;;;;;;18.20;5.07;;;7.60;99.90;;;;;;5008374;28;20026;-71
2021/12/19 01:47:41;;;;;;;21.80;6.43;;;7.60;99.90;;;;;;4986565;28;20034;-72
2021/12/19 01:50:09;;;;;;;18.45;5.43;;;7.60;99.90;;;;;;5008096;28;20062;-72
2021/12/19 01:52:34;;;;;;;16.73;5.00;;;7.60;99.90;;;;;;4994230;28;20084;-72
2021/12/19 01:55:01;;;;;;;19.00;5.10;;;7.60;99.90;;;;;;5011057;28;20027;-72
2021/12/19 01:57:27;;;;;;;19.17;5.10;;;7.60;99.90;;;;;;4993053;28;20026;-72
2021/12/19 01:59:54;;;;;;;21.88;5.32;;;7.70;99.90;;;;;;5011119;28;20041;-72
2021/12/19 02:02:23;;;;;;;19.83;5.15;;;7.70;99.90;;;;;;5007548;28;20480;-72
2021/12/19 02:04:49;;;;;;;16.35;4.80;;;7.70;99.90;;;;;;4996485;28;20104;-72
2021/12/19 02:07:15;;;;;;;17.27;4.90;;;7.70;99.90;;;;;;5014726;28;20061;-72
2021/12/19 02:09:42;;;;;;;14.98;4.13;;;7.70;99.90;;;;;;5015102;28;20451;-72
2021/12/19 02:12:08;;;;;;;19.95;4.88;;;7.70;99.90;;;;;;5015008;28;20041;-72
2021/12/19 02:14:34;;;;;;;24.88;5.28;;;7.70;99.90;;;;;;5014962;28;20395;-72
2021/12/19 02:17:00;;;;;;;15.35;4.68;;;7.70;99.90;;;;;;5014978;28;20730;-72
2021/12/19 02:19:29;;;;;;;17.15;5.10;;;7.80;99.90;;;;;;5014866;28;20101;-72
2021/12/19 02:21:55;;;;;;;15.70;4.70;;;7.70;99.90;;;;;;5014134;28;20029;-72
2021/12/19 02:24:21;;;;;;;13.32;4.00;;;7.70;99.90;;;;;;4996868;28;20383;-72
2021/12/19 02:26:47;;;;;;;15.52;3.58;;;7.70;99.90;;;;;;5014858;28;20037;-72
2021/12/19 02:29:13;;;;;;;14.00;3.67;;;7.70;99.90;;;;;;4996907;28;20033;-71
2021/12/19 02:31:39;;;;;;;15.48;4.78;;;7.80;99.90;;;;;;5014588;28;20388;-73
2021/12/19 02:34:17;;;;;;;22.25;4.30;;;7.80;99.90;;;;;;5015050;28;20606;-72
2021/12/19 02:40:31;;;;;;;19.58;3.92;;;7.70;99.90;;;;;;5014225;28;20422;-72
2021/12/19 02:50:36;;;;;;;22.10;4.85;;;7.70;99.90;;;;;;5018558;28;20132;-72
2021/12/19 02:53:01;;;;;;;17.80;4.10;;;7.70;99.90;;;;;;5013989;28;20543;-73
2021/12/19 02:55:27;;;;;;;18.88;5.13;;;7.70;99.90;;;;;;5014630;28;20117;-72
2021/12/19 02:57:53;;;;;;;19.10;4.30;;;7.70;99.90;;;;;;5012920;28;20088;-71
2021/12/19 03:00:24;;;;;;;14.07;4.30;;;7.70;99.90;;;;;;5011659;28;20029;-73
2021/12/19 03:02:50;;;;;;;21.88;5.05;;;7.70;99.90;;;;;;5013880;28;20116;-72
2021/12/19 03:05:16;;;;;;;14.77;4.35;;;7.70;99.90;;;;;;4995894;28;20022;-72
2021/12/19 03:07:43;;;;;;;15.55;5.20;;;7.70;99.90;;;;;;4996415;28;20085;-72
2021/12/19 03:18:14;;;;;;;15.77;5.20;;;7.70;99.90;;;;;;4995301;28;20044;-72
2021/12/19 03:20:44;;;;;;;19.95;6.00;;;7.60;99.90;;;;;;4996434;28;20053;-72
2021/12/19 03:23:13;;;;;;;14.27;4.70;;;7.60;99.90;;;;;;5012685;28;20029;-72
2021/12/19 03:25:39;;;;;;;14.20;4.85;;;7.70;99.90;;;;;;5013857;28;20025;-72
2021/12/19 03:28:08;;;;;;;16.00;4.70;;;7.60;99.90;;;;;;4996806;28;20042;-71
2021/12/19 03:30:35;;;;;;;10.40;4.10;;;7.60;99.90;;;;;;5013416;28;20044;-73
2021/12/19 03:33:02;;;;;;;16.55;3.72;;;7.60;99.90;;;;;;5012899;28;20033;-71
2021/12/19 03:35:29;;;;;;;16.88;3.90;;;7.60;99.90;;;;;;5012580;28;20034;-72
2021/12/19 03:37:56;;;;;;;10.27;3.28;;;7.60;99.90;;;;;;5013485;28;20022;-71
2021/12/19 03:40:24;;;;;;;6.78;2.00;;;7.60;99.90;;;;;;5012988;28;20064;-71
2021/12/19 03:42:53;;;;;;;9.02;2.70;;;7.60;99.90;;;;;;5013233;28;20472;-71
2021/12/19 03:45:21;;;;;;;8.55;2.50;;;7.60;99.90;;;;;;4996354;28;20022;-75
2021/12/19 03:47:48;;;;;;;8.10;2.38;;;7.60;99.90;;;;;;5012857;28;20033;-72
2021/12/19 03:50:19;;;;;;;13.23;3.20;;;7.60;99.90;;;;;;5013253;28;20030;-72
2021/12/19 03:52:45;;;;;;;12.60;3.25;;;7.60;99.90;;;;;;4995402;28;20025;-71
2021/12/19 03:55:11;;;;;;;11.05;2.78;;;7.60;99.90;;;;;;5013179;28;20079;-71
2021/12/19 03:57:37;;;;;;;10.32;2.80;;;7.60;99.90;;;;;;5012789;28;20026;-71
2021/12/19 04:00:06;;;;;;;8.55;2.28;;;7.60;99.90;;;;;;5012983;28;20649;-73
2021/12/19 04:02:32;;;;;;;8.32;2.55;;;7.50;99.90;;;;;;4992960;28;20022;-71
2021/12/19 04:04:58;;;;;;;6.65;2.25;;;7.50;99.90;;;;;;5011035;28;20423;-71
2021/12/19 04:07:26;;;;;;;7.68;2.92;;;7.50;99.90;;;;;;5013126;28;20111;-71
2021/12/19 04:09:52;;;;;;;5.35;2.20;;;7.50;99.90;;;;;;5013017;28;20028;-73
2021/12/19 04:12:18;;;;;;;5.28;2.00;;;7.50;99.90;;;;;;5012670;28;20030;-71
2021/12/19 04:14:44;;;;;;;6.30;2.03;;;7.40;99.90;;;;;;5012664;28;20109;-71
2021/12/19 04:17:10;;;;;;;5.43;1.63;;;7.50;99.90;;;;;;5012888;28;20104;-73
2021/12/19 04:19:36;;;;;;;8.20;1.65;;;7.40;99.90;;;;;;4995253;28;20022;-71
2021/12/19 04:22:03;;;;;;;5.13;1.27;;;7.30;99.90;;;;;;5005896;28;20480;-72
2021/12/19 04:24:28;;;;;;;5.55;1.52;;;7.30;99.90;;;;;;5012641;28;20048;-71
2021/12/19 04:26:55;;;;;;;4.22;1.30;;;7.30;99.90;;;;;;5011993;28;20484;-74
2021/12/19 04:29:23;;;;;;;3.85;1.40;;;7.30;99.90;;;;;;5012613;28;20036;-71
2021/12/19 04:31:49;;;;;;;5.72;1.38;;;7.30;99.90;;;;;;4994217;28;20038;-73
2021/12/19 04:34:16;;;;;;;2.85;1.10;;;7.30;99.90;;;;;;4980299;28;20114;-72
2021/12/19 04:36:44;;;;;;;4.82;1.20;;;7.30;99.90;;;;;;5011831;28;20357;-71
2021/12/19 05:15:49;;;;;;;7.45;2.22;;;7.30;99.90;;;;;;5008905;28;20033;-71
2021/12/19 05:18:15;;;;;;;8.82;2.45;;;7.30;99.90;;;;;;4994240;28;20488;-71
2021/12/19 05:20:51;;;;;;;15.20;2.40;;;7.30;99.90;;;;;;5006236;28;20065;-74
2021/12/19 05:23:27;;;;;;;6.93;1.80;;;7.30;99.90;;;;;;4993184;28;20137;-71
2021/12/19 05:25:53;;;;;;;6.82;1.90;;;7.30;99.90;;;;;;4993578;28;20045;-73
2021/12/19 05:28:18;;;;;;;6.60;1.55;;;7.30;99.90;;;;;;5011755;28;20480;-73
2021/12/19 05:30:44;;;;;;;8.38;1.90;;;7.40;99.90;;;;;;5011914;28;20076;-73
2021/12/19 05:33:11;;;;;;;16.45;2.50;;;7.40;99.90;;;;;;5007116;28;20026;-72
2021/12/19 05:44:12;;;;;;;12.38;2.10;;;7.30;99.90;;;;;;4997989;28;20137;-73
2021/12/19 05:46:45;;;;;;;7.85;2.55;;;7.40;99.90;;;;;;5015721;28;20109;-73
2021/12/19 05:49:11;;;;;;;11.10;2.90;;;7.30;99.90;;;;;;5015267;28;20104;-74
2021/12/19 05:51:38;;;;;;;21.15;3.03;;;7.30;99.90;;;;;;4995673;28;20528;-73
2021/12/19 05:54:06;;;;;;;11.82;2.53;;;7.30;99.90;;;;;;5014947;28;20017;-72
2021/12/19 05:56:32;;;;;;;15.38;3.22;;;7.40;99.90;;;;;;5015546;28;20480;-73
2021/12/19 05:58:58;;;;;;;8.95;2.15;;;7.40;99.90;;;;;;5014155;28;20033;-73
2021/12/19 06:01:23;;;;;;;17.30;3.33;;;7.40;99.90;;;;;;5012585;28;20045;-74
2021/12/19 06:03:49;;;;;;;10.10;2.30;;;7.40;99.90;;;;;;5000029;28;20033;-71
2021/12/19 06:06:15;;;;;;;9.93;2.42;;;7.40;99.90;;;;;;5013109;28;20053;-74
2021/12/19 06:08:41;;;;;;;13.68;3.40;;;7.40;99.90;;;;;;5013768;28;20100;-73
2021/12/19 06:11:07;;;;;;;14.85;2.22;;;7.40;99.90;;;;;;5010683;28;20026;-73
2021/12/19 06:13:33;;;;;;;13.02;2.78;;;7.40;99.90;;;;;;5010719;28;20030;-73
2021/12/19 06:15:59;;;;;;;13.70;2.40;;;7.40;99.90;;;;;;4997297;28;20026;-73
2021/12/19 06:18:24;;;;;;;15.25;2.53;;;7.40;99.90;;;;;;4996079;28;20041;-72
2021/12/19 06:20:50;;;;;;;11.13;2.17;;;7.50;99.90;;;;;;4997654;28;20197;-73
2021/12/19 06:23:16;;;;;;;9.18;2.25;;;7.50;99.90;;;;;;5014486;28;20026;-75
2021/12/19 06:25:45;;;;;;;8.07;2.35;;;7.60;99.90;;;;;;4995850;28;20030;-73
2021/12/19 06:28:18;;;;;;;13.05;2.45;;;7.60;99.90;;;;;;5014336;28;20032;-73
2021/12/19 06:30:44;;;;;;;12.73;2.97;;;7.50;99.90;;;;;;4996764;28;20153;-73
2021/12/19 06:33:10;;;;;;;13.18;2.47;;;7.50;99.90;;;;;;5012026;28;20526;-75
2021/12/19 06:35:36;;;;;;;9.52;2.58;;;7.50;99.90;;;;;;5014442;28;20125;-74
2021/12/19 06:38:02;;;;;;;15.90;2.42;;;7.50;99.90;;;;;;5014702;28;20036;-73
2021/12/19 06:40:27;;;;;;;14.80;2.58;;;7.50;99.90;;;;;;4997072;28;20083;-73
2021/12/19 06:42:53;;;;;;;13.43;2.80;;;7.50;99.90;;;;;;5013151;28;20041;-73
2021/12/19 06:45:22;;;;;;;14.77;3.15;;;7.60;99.90;;;;;;5013101;28;20033;-73
2021/12/19 06:47:48;;;;;;;14.40;2.65;;;7.60;99.90;;;;;;5007827;28;20415;-73
2021/12/19 06:50:16;;;;;;;10.50;2.67;;;7.60;99.90;;;;;;5014581;28;20041;-73
2021/12/19 06:52:43;;;;;;;11.90;3.45;;;7.50;99.90;;;;;;5013081;28;20049;-74
2021/12/19 06:55:11;;;;;;;15.07;2.90;;;7.60;99.90;;;;;;5014929;28;20602;-73
2021/12/19 06:57:38;;;;;;;11.90;3.15;;;7.60;99.90;;;;;;4996058;28;20033;-78
2021/12/19 07:00:16;;;;;;;15.88;2.55;;;7.60;99.90;;;;;;5012091;28;20500;-73
2021/12/19 07:02:41;;;;;;;11.23;3.00;;;7.70;99.90;;;;;;5007524;28;20028;-73
2021/12/19 07:05:08;;;;;;;10.15;2.22;;;7.60;99.90;;;;;;5011879;28;20034;-73
2021/12/19 07:07:34;;;;;;;9.50;2.75;;;7.60;99.90;;;;;;5013699;28;20062;-73
2021/12/19 07:10:00;;;;;;;11.73;2.80;;;7.60;99.90;;;;;;5017506;28;20029;-73
2021/12/19 07:12:26;;;;;;;7.70;2.25;;;7.60;99.90;;;;;;5013234;28;20396;-73
2021/12/19 07:14:56;;;;;;;10.68;2.03;;;7.60;99.90;;;;;;5013605;28;20076;-72
2021/12/19 07:17:23;;;;;;;10.32;2.10;;;7.60;99.90;;;;;;4979897;28;20022;-72
2021/12/19 07:19:49;;;;;;;15.98;2.88;;;7.60;99.90;;;;;;5015142;28;20026;-73
2021/12/19 07:22:15;;;;;;;13.30;2.35;;;7.60;99.90;;;;;;4995726;28;20555;-72
2021/12/19 07:24:40;;;;;;;10.30;2.17;;;7.60;99.90;;;;;;5013842;28;20109;-72
2021/12/19 07:27:06;;;;;;;18.38;2.60;;;7.70;99.90;;;;;;5012360;28;20030;-73
2021/12/19 07:29:32;;;;;;;12.02;2.40;;;7.60;99.90;;;;;;5014083;28;20080;-75
2021/12/19 07:31:58;;;;;;;12.85;2.17;;;7.60;99.90;;;;;;5011683;28;20033;-72
2021/12/19 07:34:32;;;;;;;6.47;1.85;;;7.60;99.90;;;;;;4995566;28;20101;-73
2021/12/19 07:36:58;;;;;;;9.50;1.98;;;7.60;99.90;;;;;;5012482;28;20464;-72
2021/12/19 07:40:13;;;;;;;9.25;2.10;;;7.70;99.90;;;;;;5013358;28;20448;-72
2021/12/19 07:42:12;;;;;;;9.98;2.05;;;7.70;99.90;;;;;;5000616;28;20511;-72
2021/12/19 07:44:38;;;;;;;12.50;1.98;;;7.60;99.90;;;;;;5010034;28;20030;-74
2021/12/19 07:47:07;;;;;;;11.38;2.47;;;7.60;99.90;;;;;;4994430;28;20472;-73
2021/12/19 07:49:33;;;;;;;18.35;2.45;;;7.70;99.90;;;;;;5012419;28;20404;-74
2021/12/19 07:51:58;;;;;;;11.95;2.17;;;7.70;99.90;;;;;;5010558;28;20063;-72
2021/12/19 07:54:24;;;;;;;15.13;2.67;;;7.70;99.90;;;;;;4994102;28;20540;-72
2021/12/19 07:56:51;;;;;;;11.38;1.77;;;7.70;99.90;;;;;;5009699;28;20061;-75
2021/12/19 07:59:17;;;;;;;14.00;2.50;;;7.70;99.90;;;;;;5011361;28;20026;-73
2021/12/19 08:01:43;;;;;;;12.10;2.85;;;7.70;99.90;;;;;;5010915;28;20048;-72
2021/12/19 08:04:09;;;;;;;13.00;2.67;;;7.70;99.90;;;;;;5010305;28;20018;-72
2021/12/19 08:06:35;;;;;;;9.70;1.80;;;7.70;99.90;;;;;;4991126;28;20097;-73
2021/12/19 08:09:08;;;;;;;17.75;2.55;;;7.80;99.90;;;;;;5009168;28;20100;-74
2021/12/19 08:11:40;;;;;;;19.58;2.28;;;7.80;99.90;;;;;;5006607;28;20029;-73
2021/12/19 08:14:07;;;;;;;14.55;2.97;;;7.80;99.90;;;;;;5011698;28;20026;-74
2021/12/19 08:16:33;;;;;;;20.10;2.53;;;7.80;99.90;;;;;;4990555;28;20097;-74
2021/12/19 08:18:59;;;;;;;7.70;2.15;;;7.80;99.90;;;;;;5010031;28;20547;-73
2021/12/19 08:21:25;;;;;;;14.00;1.88;;;7.80;99.90;;;;;;5011038;28;20018;-73
2021/12/19 08:23:50;;;;;;;11.52;1.92;;;7.80;99.90;;;;;;5010691;28;20109;-74
2021/12/19 08:26:16;;;;;;;9.77;2.72;;;7.80;99.90;;;;;;5009982;28;20408;-73
2021/12/19 08:28:42;;;;;;;9.13;1.80;;;7.80;99.90;;;;;;5010801;28;20030;-74
2021/12/19 08:31:08;;;;;;;11.75;1.90;;;7.90;99.90;;;;;;4993426;28;20083;-74
2021/12/19 08:33:34;;;;;;;13.73;2.00;;;7.80;99.90;;;;;;5010712;28;20108;-74
2021/12/19 08:36:01;;;;;;;12.15;2.30;;;7.80;99.90;;;;;;4993281;28;20104;-74
2021/12/19 08:38:27;;;;;;;12.38;2.00;;;7.80;99.90;;;;;;5010125;28;20041;-73
2021/12/19 08:40:53;;;;;;;12.68;2.25;;;7.80;99.90;;;;;;4992569;28;20076;-72
2021/12/19 08:43:19;;;;;;;6.40;1.65;;;7.80;99.90;;;;;;5011231;28;20511;-72
2021/12/19 08:45:46;;;;;;;11.05;2.15;;;7.80;99.90;;;;;;4993495;28;20033;-72
2021/12/19 08:48:13;;;;;;;12.00;2.28;;;7.90;99.90;;;;;;5010060;28;20034;-72
2021/12/19 08:50:39;;;;;;;17.02;3.30;;;7.90;99.90;;;;;;5010828;28;20057;-73
2021/12/19 08:53:06;;;;;;;11.23;2.28;;;7.90;99.90;;;;;;5010494;28;20075;-72
2021/12/19 08:55:32;;;;;;;13.20;2.13;;;7.90;99.90;;;;;;5010553;28;20034;-72
2021/12/19 08:57:58;;;;;;;21.23;3.45;;;7.80;99.90;;;;;;5009291;28;20251;-72
2021/12/19 09:00:23;;;;;;;17.08;2.65;;;7.80;99.90;;;;;;4992506;28;20108;-73
2021/12/19 09:02:51;;;;;;;13.75;2.35;;;7.90;99.90;;;;;;5009852;28;20028;-74
2021/12/19 09:05:19;;;;;;;14.40;2.22;;;7.90;99.90;;;;;;5010685;28;20018;-72
2021/12/19 09:07:44;;;;;;;17.42;2.78;;;7.90;99.90;;;;;;5010081;28;20026;-72
2021/12/19 09:10:11;;;;;;;17.92;5.80;;;7.90;99.90;;;;;;5010550;28;20101;-73
2021/12/19 09:12:37;;;;;;;14.02;2.42;;;7.90;99.90;;;;;;5009493;28;20679;-72
2021/12/19 09:15:04;;;;;;;13.20;2.35;;;8.10;99.90;;;;;;5000437;28;20034;-74
2021/12/19 09:17:30;;;;;;;14.93;3.10;;;8.10;99.90;;;;;;5006449;28;20492;-72
2021/12/19 09:19:55;;;;;;;10.43;2.40;;;8.10;99.90;;;;;;5010612;28;20036;-73
2021/12/19 09:22:21;;;;;;;13.68;2.35;;;8.10;99.90;;;;;;5010277;28;20038;-73
2021/12/19 09:24:47;;;;;;;11.98;1.88;;;8.10;99.90;;;;;;5004215;28;20041;-72
2021/12/19 09:27:13;;;;;;;12.32;2.20;;;8.10;99.90;;;;;;5010584;28;20050;-73
2021/12/19 09:29:39;;;;;;;15.55;2.85;;;8.10;99.90;;;;;;5040680;23;20034;-92
2021/12/19 09:32:15;;;;;;;11.70;2.03;;;8.10;99.90;;;;;;5005084;28;20014;-89
2021/12/19 09:34:45;;;;;;;13.40;2.70;;;8.10;99.90;;;;;;5002699;28;20026;-90
2021/12/19 09:37:23;;;;;;;12.50;2.85;;;8.10;99.90;;;;;;5003180;28;20068;-90
2021/12/19 09:40:24;;;;;;;13.43;3.00;;;8.10;99.90;;;;;;5019076;28;20048;-92
2021/12/19 09:46:00;;;;;;;13.15;2.90;;;8.20;99.90;;;;;;5003829;28;20129;-74
2021/12/19 09:48:27;;;;;;;7.50;2.40;;;8.20;99.90;;;;;;4991699;28;20034;-74
2021/12/19 09:50:53;;;;;;;13.98;2.15;;;8.20;99.90;;;;;;4976923;28;20502;-74
2021/12/19 09:53:20;;;;;;;11.88;2.53;;;8.20;99.90;;;;;;4991088;28;20050;-73
2021/12/19 09:58:14;;;;;;;15.73;2.40;;;8.30;99.90;;;;;;5002290;28;20414;-71
2021/12/19 10:00:41;;;;;;;15.65;2.13;;;8.30;99.90;;;;;;5006678;28;20035;-73
2021/12/19 10:03:11;;;;;;;14.77;2.95;;;8.30;99.90;;;;;;4986779;28;20586;-73
2021/12/19 10:05:38;;;;;;;20.77;2.93;;;8.30;99.90;;;;;;4972914;28;20033;-73
2021/12/19 10:08:04;;;;;;;12.18;2.70;;;8.30;99.90;;;;;;5005192;28;20069;-73
2021/12/19 10:10:58;;;;;;;18.42;3.53;;;8.30;99.90;;;;;;5003968;28;20026;-72
2021/12/19 10:13:31;;;;;;;17.67;2.60;;;8.30;99.90;;;;;;5007742;28;20029;-74
2021/12/19 10:15:57;;;;;;;20.52;2.80;;;8.30;99.90;;;;;;5002821;28;20022;-73
2021/12/19 10:18:29;;;;;;;10.88;2.50;;;8.30;99.90;;;;;;4984430;28;20096;-72
2021/12/19 10:21:00;;;;;;;11.55;2.60;;;8.30;99.90;;;;;;5005193;28;20028;-71
2021/12/19 10:23:31;;;;;;;12.93;2.55;;;8.40;99.90;;;;;;5006175;28;20029;-72
2021/12/19 10:26:06;;;;;;;17.75;2.50;;;8.40;99.90;;;;;;5008159;28;20018;-73
2021/12/19 10:28:33;;;;;;;12.32;2.65;;;8.40;99.90;;;;;;5007521;28;20515;-73
2021/12/19 10:31:02;;;;;;;11.15;2.42;;;8.30;99.90;;;;;;5012336;28;20045;-71
2021/12/19 10:33:31;;;;;;;12.38;2.67;;;8.40;99.90;;;;;;5011698;28;20128;-71
2021/12/19 10:36:03;;;;;;;16.17;3.25;;;8.30;99.90;;;;;;5010959;28;20036;-72
2021/12/19 10:38:30;;;;;;;12.82;2.40;;;8.40;99.90;;;;;;4992052;28;20057;-71
2021/12/19 10:41:00;;;;;;;21.55;2.45;;;8.40;99.90;;;;;;5012946;28;20022;-71
2021/12/19 10:43:30;;;;;;;11.57;2.40;;;8.40;99.90;;;;;;5008788;28;20097;-72
2021/12/19 10:45:59;;;;;;;11.88;2.72;;;8.40;99.90;;;;;;5011441;28;20030;-72
2021/12/19 10:48:25;;;;;;;17.90;2.65;;;8.40;99.90;;;;;;5009008;28;20033;-71
2021/12/19 10:50:57;;;;;;;9.60;2.22;;;8.40;99.90;;;;;;5012177;28;20439;-72
2021/12/19 10:54:01;;;;;;;11.55;1.90;;;8.40;99.90;;;;;;4987476;28;20089;-72
2021/12/19 10:56:33;;;;;;;11.68;2.40;;;8.50;99.90;;;;;;4997377;28;20508;-72
2021/12/19 10:59:08;;;;;;;13.10;2.97;;;8.40;99.90;;;;;;5007240;28;20038;-72
2021/12/19 11:01:54;;;;;;;12.48;2.53;;;8.40;99.90;;;;;;5007382;28;20107;-72
2021/12/19 11:04:22;;;;;;;9.52;2.15;;;8.40;99.90;;;;;;5011482;28;20399;-74
2021/12/19 11:06:52;;;;;;;13.52;2.97;;;8.40;99.90;;;;;;5004245;28;20030;-75
2021/12/19 11:09:23;;;;;;;11.77;2.42;;;8.50;99.90;;;;;;4990918;28;20022;-72
2021/12/19 11:11:56;;;;;;;12.57;2.15;;;8.40;99.90;;;;;;5007924;28;20440;-74
2021/12/19 11:14:37;;;;;;;16.15;2.10;;;8.40;99.90;;;;;;5007055;28;20417;-72
2021/12/19 11:17:09;;;;;;;10.80;2.25;;;8.50;99.90;;;;;;5009266;28;20077;-72
2021/12/19 11:19:36;;;;;;;11.73;2.20;;;8.50;99.90;;;;;;5013449;28;20033;-73
2021/12/19 11:22:02;;;;;;;16.40;2.35;;;8.50;99.90;;;;;;5010554;28;20038;-73
2021/12/19 11:24:27;;;;;;;18.25;3.15;;;8.50;99.90;;;;;;5004614;28;20030;-74
2021/12/19 11:26:59;;;;;;;17.05;2.67;;;8.50;99.90;;;;;;5012581;28;20026;-72
2021/12/19 11:29:26;;;;;;;16.85;2.50;;;8.50;99.90;;;;;;5008998;28;20660;-73
2021/12/19 11:31:58;;;;;;;12.68;2.67;;;8.50;99.90;;;;;;5014363;28;20018;-74
2021/12/19 11:34:32;;;;;;;12.63;2.47;;;8.50;99.90;;;;;;5009971;28;20081;-73
2021/12/19 11:37:13;;;;;;;11.50;2.15;;;8.50;99.90;;;;;;5006757;28;20034;-72
2021/12/19 11:39:46;;;;;;;11.63;2.83;;;8.50;99.90;;;;;;5009893;28;20033;-72
2021/12/19 11:42:15;;;;;;;13.27;2.90;;;8.60;99.90;;;;;;5009193;28;20273;-72
2021/12/19 11:47:49;;;;;;;15.85;2.20;;;8.60;99.90;;;;;;5009395;28;20045;-72
2021/12/19 11:50:23;;;;;;;16.17;2.83;;;8.50;99.90;;;;;;5011409;28;20022;-72
2021/12/19 11:53:08;;;;;;;9.43;2.75;;;8.50;99.90;;;;;;4995271;28;20542;-73
2021/12/19 11:55:34;;;;;;;16.33;3.03;;;8.60;99.90;;;;;;5010401;28;20383;-72
2021/12/19 11:58:08;;;;;;;15.10;2.30;;;8.60;99.90;;;;;;5017094;28;20026;-74
2021/12/19 12:00:50;;;;;;;14.18;2.67;;;8.60;99.90;;;;;;5010758;28;20137;-74
2021/12/19 12:03:16;;;;;;;20.77;8.23;;;8.60;99.90;;;;;;5012920;28;20080;-73
2021/12/19 12:06:12;;;;;;;20.98;4.57;;;8.60;99.90;;;;;;5010422;28;20034;-72
2021/12/19 12:08:38;;;;;;;11.98;2.30;;;8.70;99.90;;;;;;5001888;28;20057;-72
2021/12/19 12:11:04;;;;;;;10.15;2.28;;;8.70;99.90;;;;;;5008885;28;20112;-74
2021/12/19 12:13:31;;;;;;;7.25;2.00;;;8.70;99.90;;;;;;5008631;28;20044;-74
2021/12/19 12:16:23;;;;;;;15.88;2.60;;;8.70;99.90;;;;;;5007107;28;20083;-75
2021/12/19 12:19:01;;;;;;;12.38;2.38;;;8.70;99.90;;;;;;5006275;28;20065;-74
2021/12/19 12:21:39;;;;;;;13.85;2.45;;;8.70;99.90;;;;;;5012307;28;20025;-75
2021/12/19 12:24:13;;;;;;;18.48;2.75;;;8.70;99.90;;;;;;5008707;28;20022;-74
2021/12/19 12:27:00;;;;;;;16.35;2.45;;;8.70;99.90;;;;;;4991834;28;20036;-75
2021/12/19 12:29:25;;;;;;;19.08;2.92;;;8.60;99.90;;;;;;5008436;28;20400;-73
2021/12/19 12:31:53;;;;;;;16.25;3.42;;;8.70;99.90;;;;;;5006496;28;20033;-74
2021/12/19 12:34:20;;;;;;;12.65;2.42;;;8.70;99.90;;;;;;4987131;28;20038;-78
2021/12/19 12:37:06;;;;;;;13.10;2.20;;;8.70;99.90;;;;;;4964459;28;20036;-74
2021/12/19 12:39:37;;;;;;;15.20;2.67;;;8.70;99.90;;;;;;5008619;28;20026;-75
2021/12/19 12:42:09;;;;;;;13.13;2.20;;;8.70;99.90;;;;;;5010271;28;20037;-75
2021/12/19 12:44:35;;;;;;;8.75;1.67;;;8.80;99.90;;;;;;4992705;28;20034;-74
2021/12/19 12:47:01;;;;;;;19.52;2.42;;;8.80;99.90;;;;;;5010355;28;20030;-74
2021/12/19 12:49:34;;;;;;;10.95;2.35;;;8.70;99.90;;;;;;5006789;28;20037;-74
2021/12/19 12:52:06;;;;;;;14.57;2.50;;;8.70;99.90;;;;;;4989069;28;20022;-76
2021/12/19 12:54:37;;;;;;;14.15;2.80;;;8.70;99.90;;;;;;5009179;28;20038;-74
2021/12/19 12:57:11;;;;;;;13.68;2.53;;;8.70;99.90;;;;;;5007382;28;20030;-74
2021/12/19 12:59:39;;;;;;;12.75;2.40;;;8.70;99.90;;;;;;5011579;28;20074;-75
2021/12/19 13:02:12;;;;;;;13.18;2.30;;;8.60;99.90;;;;;;5001391;28;20101;-75
2021/12/19 13:04:41;;;;;;;11.48;2.08;;;8.60;99.90;;;;;;5008745;28;20383;-75
2021/12/19 13:07:15;;;;;;;12.82;2.38;;;8.70;99.90;;;;;;5006600;28;20110;-75
2021/12/19 13:09:46;;;;;;;11.25;1.92;;;8.70;99.90;;;;;;5006220;28;20025;-74
2021/12/19 13:12:18;;;;;;;6.50;1.90;;;8.70;99.90;;;;;;4989644;28;20026;-75
2021/12/19 13:14:51;;;;;;;12.50;2.45;;;8.70;99.90;;;;;;4986160;28;20033;-74
2021/12/19 13:17:22;;;;;;;10.65;2.10;;;8.70;99.90;;;;;;4989042;28;20030;-74
2021/12/19 13:19:57;;;;;;;10.32;2.13;;;8.70;99.90;;;;;;5010463;28;20026;-74
2021/12/19 13:22:43;;;;;;;10.00;2.22;;;8.70;99.90;;;;;;5008669;28;20022;-74
2021/12/19 13:25:16;;;;;;;12.10;1.98;;;8.70;99.90;;;;;;5008054;28;20029;-74
2021/12/19 13:27:45;;;;;;;8.73;1.90;;;8.70;99.90;;;;;;4986968;28;20252;-74
2021/12/19 13:30:18;;;;;;;15.18;2.20;;;8.60;99.90;;;;;;5007647;28;20030;-74
2021/12/19 13:32:52;;;;;;;15.00;2.85;;;8.60;99.90;;;;;;5008742;28;20583;-74
2021/12/19 13:35:43;;;;;;;10.98;2.63;;;8.70;99.90;;;;;;4989192;28;20072;-74
2021/12/19 13:38:12;;;;;;;12.05;1.98;;;8.70;99.90;;;;;;5006252;28;20103;-75
2021/12/19 13:40:41;;;;;;;15.30;1.77;;;8.70;99.90;;;;;;5008134;28;20037;-74
2021/12/19 13:43:14;;;;;;;9.77;2.20;;;8.70;99.90;;;;;;5006121;28;20053;-74
2021/12/19 13:45:43;;;;;;;15.93;2.97;;;8.60;99.90;;;;;;5005255;28;20022;-74
2021/12/19 13:48:13;;;;;;;10.88;1.98;;;8.60;99.90;;;;;;5008869;28;20056;-74
2021/12/19 13:50:43;;;;;;;10.65;2.05;;;8.60;99.90;;;;;;5010631;28;20041;-74
2021/12/19 13:53:12;;;;;;;14.55;2.38;;;8.60;99.90;;;;;;5007334;28;20093;-76
2021/12/19 13:55:47;;;;;;;8.98;2.17;;;8.50;99.90;;;;;;5009133;28;20403;-75
2021/12/19 13:58:13;;;;;;;10.82;2.38;;;8.50;99.90;;;;;;5002115;28;20085;-76
2021/12/19 14:00:43;;;;;;;14.50;2.95;;;8.50;99.90;;;;;;4991116;28;20455;-75
2021/12/19 14:03:10;;;;;;;10.25;1.95;;;8.40;99.90;;;;;;5014041;28;20083;-75
2021/12/19 14:05:36;;;;;;;10.75;1.85;;;8.40;99.90;;;;;;5012401;28;20034;-75
2021/12/19 14:08:34;;;;;;;12.95;2.55;;;8.40;99.90;;;;;;5010400;28;20045;-75
2021/12/19 14:11:08;;;;;;;14.30;2.60;;;8.50;99.90;;;;;;5010697;28;20022;-74
2021/12/19 14:13:37;;;;;;;14.43;2.92;;;8.50;99.90;;;;;;5010104;28;20032;-74
2021/12/19 14:16:09;;;;;;;8.55;2.08;;;8.50;99.90;;;;;;5014537;28;20030;-74